Delaware County Johnson Field
KMIE : rendu visible

Aérodrome :











RETROUVEZ-NOUS SUR...

 
LOGIN :

S'inscrire | Disclaimer

   EN    FR    IT 

 









Légende :    VFR   VFR Marginal   IFR   IFR Intensif   IFR Très Intensif
Visi : 
Plafond : 
>= 8 km
>= 3000ft
5 à 8 km
1000 à 3000 ft
1500m à 5 km
500 à 1000 ft
800 à 1500m
200 à 500 ft
< 800m
< 200 ft
Symboles :   Orages  Brouillard  Fortes neiges  Fortes précipitations  Vent > 20 kt






- Altitude de l'aérodrome : 937 ft
- Code IATA : MIE


KMIE - Delaware County Johnson Field

DERNIER METAR :
  • 050053Z 33009KT 10SM OVC007 09/06 A3007 RMK AO2 RAE23 SLP181 P0002 T00890061

METARs EXPIRÉS :
  • 050022Z 33010KT 8SM -RA OVC006 09/07 A3007 RMK AO2 P0002 T00890067
  • 050012Z 32008KT 2SM RA BR BKN007 OVC020 09/07 A3006 RMK AO2 P0002 T00890067
  • 042353Z 33008KT 4SM RA BKN007 OVC019 09/07 A3006 RMK AO2 RAE30B44 SLP176 P0001 60001 T00940067 10178 20094 53013
  • 042341Z 33008KT 6SM BR BKN007 OVC019 09/07 A3006 RMK AO2 RAE30 P0000 T00940072
  • 042253Z 33014KT 6SM -RA FEW009 BKN021 OVC040 11/08 A3005 RMK AO2 RAB41 SLP173 P0000 T01060078

TAF N/A



MET'MAP, la Météo Aéronautique d'un coup d'oeil ! - Copyright ORBIFLY Décembre 2007 - Disclaimer

ORBIFLY MET'MAP TEAM :

Programmation & Développement : Alexandra Zaïnal
Sur une idée originale de : Baudouin d'Aumeries
Assistance à la programmation : Marc-Olivier Méhu
Soutien technique & logistique : Manuel Goepfert

Contact : metmap@orbifly.com




SOURCES & CREDITS :

   NOAA       Earth
Advisory